createdAt,value
2023-03-27T00:01:15.979Z,86.62
2023-03-27T00:03:43.077Z,86.70
2023-03-27T00:06:16.637Z,85.84
2023-03-27T00:08:44.871Z,85.87
2023-03-27T00:11:11.977Z,85.98
2023-03-27T00:13:49.183Z,85.19
2023-03-27T00:16:19.173Z,84.96
2023-03-27T00:18:45.864Z,85.17
2023-03-27T00:21:12.718Z,85.39
2023-03-27T00:23:39.285Z,85.08
2023-03-27T00:26:06.055Z,84.85
2023-03-27T00:28:32.750Z,84.78
2023-03-27T00:30:59.757Z,84.95
2023-03-27T00:33:27.088Z,84.80
2023-03-27T00:35:53.756Z,84.55
2023-03-27T00:38:21.091Z,84.31
2023-03-27T00:40:49.032Z,84.61
2023-03-27T00:43:23.401Z,85.16
2023-03-27T00:45:51.874Z,85.41
2023-03-27T00:48:20.567Z,85.44
2023-03-27T00:50:47.821Z,85.37
2023-03-27T00:53:17.057Z,85.44
2023-03-27T00:55:44.338Z,84.78
2023-03-27T00:58:16.472Z,84.99
2023-03-27T01:00:43.174Z,85.04
2023-03-27T01:03:11.463Z,84.56
2023-03-27T01:05:38.272Z,84.94
2023-03-27T01:08:05.236Z,85.42
2023-03-27T01:11:10.975Z,85.18
2023-03-27T01:14:15.799Z,85.40
2023-03-27T01:17:06.513Z,85.57
2023-03-27T01:20:04.814Z,85.74
2023-03-27T01:22:34.210Z,85.31
2023-03-27T01:25:22.400Z,84.54
2023-03-27T01:28:02.499Z,85.00
2023-03-27T01:30:43.366Z,85.29
2023-03-27T01:33:16.143Z,85.17
2023-03-27T01:35:52.205Z,85.42
2023-03-27T01:38:51.415Z,85.04
2023-03-27T01:41:26.758Z,85.17
2023-03-27T01:44:43.843Z,84.67
2023-03-27T01:47:21.493Z,82.99
2023-03-27T01:49:53.710Z,82.62
2023-03-27T01:52:26.194Z,82.84
2023-03-27T01:54:58.234Z,80.58
2023-03-27T01:57:28.430Z,81.23
2023-03-27T02:00:18.002Z,80.57
2023-03-27T02:02:50.913Z,79.67
2023-03-27T02:05:29.470Z,78.47
2023-03-27T02:08:01.991Z,78.24
2023-03-27T02:10:34.023Z,77.94
2023-03-27T02:13:18.309Z,77.28
2023-03-27T02:15:46.575Z,77.23
2023-03-27T02:18:19.023Z,77.17
2023-03-27T02:20:45.601Z,77.08
2023-03-27T02:23:12.599Z,76.67
2023-03-27T02:25:44.433Z,76.07
2023-03-27T02:28:19.942Z,75.89
2023-03-27T02:31:32.542Z,76.07
2023-03-27T02:34:13.084Z,75.79
2023-03-27T02:36:54.873Z,75.72
2023-03-27T02:39:37.106Z,75.93
2023-03-27T02:42:35.972Z,75.70
2023-03-27T02:45:17.478Z,75.92
2023-03-27T02:47:50.083Z,75.93
2023-03-27T02:50:20.118Z,76.23
2023-03-27T02:52:57.569Z,76.87
2023-03-27T02:55:26.796Z,76.96
2023-03-27T02:57:59.559Z,76.31
2023-03-27T03:00:39.638Z,76.34
2023-03-27T03:03:27.948Z,76.71
2023-03-27T03:06:07.027Z,76.72
2023-03-27T03:08:38.354Z,77.00
2023-03-27T03:11:10.188Z,76.80
2023-03-27T03:13:37.622Z,77.00
2023-03-27T03:16:05.218Z,77.18
2023-03-27T03:18:33.220Z,77.55
2023-03-27T03:21:00.107Z,77.86
2023-03-27T03:23:27.006Z,77.14
2023-03-27T03:25:56.534Z,77.28
2023-03-27T03:28:26.046Z,77.41
2023-03-27T03:30:53.731Z,77.88
2023-03-27T03:33:21.472Z,78.05
2023-03-27T03:35:49.924Z,78.65
2023-03-27T03:38:29.486Z,79.06
2023-03-27T03:41:07.259Z,78.94
2023-03-27T03:43:34.470Z,79.42
2023-03-27T03:46:01.626Z,79.72
2023-03-27T03:48:28.250Z,79.81
2023-03-27T03:50:55.057Z,79.90
2023-03-27T03:53:22.192Z,80.49
2023-03-27T03:55:51.240Z,80.53
2023-03-27T03:58:17.808Z,80.43
2023-03-27T04:00:44.662Z,80.43
2023-03-27T04:03:32.209Z,80.78
2023-03-27T04:06:05.094Z,80.42
2023-03-27T04:08:32.331Z,80.48
2023-03-27T04:11:01.544Z,80.90
2023-03-27T04:13:57.487Z,81.06
2023-03-27T04:16:30.590Z,81.20
2023-03-27T04:19:03.073Z,81.90
2023-03-27T04:21:31.970Z,81.74
2023-03-27T04:24:02.325Z,81.83
2023-03-27T04:26:43.288Z,81.89
2023-03-27T04:29:25.757Z,82.07
2023-03-27T04:31:58.914Z,82.37
2023-03-27T04:34:54.782Z,82.41
2023-03-27T04:37:42.890Z,82.29
2023-03-27T04:40:30.718Z,82.11
2023-03-27T04:42:57.579Z,82.05
2023-03-27T04:45:25.451Z,81.94
2023-03-27T04:47:54.497Z,81.89
2023-03-27T04:50:21.407Z,82.25
2023-03-27T04:52:50.277Z,82.12
2023-03-27T04:55:19.251Z,82.12
2023-03-27T04:57:48.551Z,82.54
2023-03-27T05:00:23.744Z,82.28
2023-03-27T05:03:28.390Z,82.47
2023-03-27T05:06:04.294Z,82.48
2023-03-27T05:08:31.588Z,82.56
2023-03-27T05:10:58.914Z,82.32
2023-03-27T05:13:26.180Z,82.48
2023-03-27T05:15:52.805Z,82.76
2023-03-27T05:18:21.920Z,82.77
2023-03-27T05:20:50.598Z,82.74
2023-03-27T05:23:17.207Z,82.35
2023-03-27T05:25:45.254Z,82.48
2023-03-27T05:28:33.205Z,82.46
2023-03-27T05:31:00.774Z,82.78
2023-03-27T05:33:32.186Z,82.76
2023-03-27T05:35:58.813Z,82.59
2023-03-27T05:38:27.146Z,81.99
2023-03-27T05:41:12.636Z,81.96
2023-03-27T05:43:45.508Z,81.69
2023-03-27T05:46:13.518Z,81.80
2023-03-27T05:48:52.861Z,81.71
2023-03-27T05:51:19.627Z,81.59
2023-03-27T05:53:47.176Z,81.51
2023-03-27T05:56:24.164Z,81.67
2023-03-27T05:58:53.712Z,81.48
2023-03-27T06:01:23.470Z,81.41
2023-03-27T06:03:55.942Z,81.14
2023-03-27T06:06:29.992Z,81.15
2023-03-27T06:08:59.325Z,81.16
2023-03-27T06:11:27.314Z,81.12
2023-03-27T06:13:54.000Z,80.86
2023-03-27T06:16:32.487Z,81.07
2023-03-27T06:19:28.331Z,80.83
2023-03-27T06:21:54.749Z,80.85
2023-03-27T06:24:21.434Z,80.80
2023-03-27T06:26:48.033Z,80.91
2023-03-27T06:29:14.478Z,80.63
2023-03-27T06:31:46.657Z,80.72
2023-03-27T06:34:18.747Z,80.88
2023-03-27T06:36:51.019Z,80.72
2023-03-27T06:39:17.706Z,80.70
2023-03-27T06:41:49.243Z,80.57
2023-03-27T06:44:42.923Z,80.48
2023-03-27T06:47:18.822Z,80.41
2023-03-27T06:50:11.235Z,80.48
2023-03-27T06:52:38.007Z,80.80
2023-03-27T06:55:19.675Z,80.72
2023-03-27T06:57:54.271Z,80.53
2023-03-27T07:00:24.354Z,81.07
2023-03-27T07:03:14.205Z,81.14
2023-03-27T07:06:01.098Z,81.10
2023-03-27T07:08:33.916Z,81.21
2023-03-27T07:13:33.684Z,81.43
2023-03-27T07:16:02.782Z,81.40
2023-03-27T07:18:32.122Z,81.18
2023-03-27T07:20:59.119Z,80.61
2023-03-27T07:23:27.278Z,80.83
2023-03-27T07:26:05.878Z,79.11
2023-03-27T07:29:05.930Z,78.21
2023-03-27T07:31:53.018Z,78.02
2023-03-27T07:34:19.031Z,77.89
2023-03-27T07:37:17.859Z,76.24
2023-03-27T07:40:08.619Z,76.10
2023-03-27T07:42:36.401Z,76.10
2023-03-27T07:45:05.986Z,75.96
2023-03-27T07:47:32.870Z,75.63
2023-03-27T07:49:59.498Z,74.81
2023-03-27T07:52:25.966Z,74.07
2023-03-27T07:54:57.821Z,74.21
2023-03-27T07:57:31.703Z,74.36
2023-03-27T08:00:11.624Z,74.52
2023-03-27T08:02:46.372Z,74.01
2023-03-27T08:05:15.139Z,73.79
2023-03-27T08:07:45.497Z,72.97
2023-03-27T08:10:16.303Z,73.04
2023-03-27T08:12:57.664Z,72.68
2023-03-27T08:15:24.968Z,72.40
2023-03-27T08:17:54.456Z,71.31
2023-03-27T08:20:25.450Z,71.45
2023-03-27T08:22:52.633Z,70.93
2023-03-27T08:25:50.226Z,71.01
2023-03-27T08:28:19.494Z,70.80
2023-03-27T08:30:46.311Z,70.92
2023-03-27T08:33:13.783Z,70.64
2023-03-27T08:35:40.570Z,70.70
2023-03-27T08:38:13.798Z,70.51
2023-03-27T08:41:03.792Z,70.46
2023-03-27T08:43:42.348Z,70.07
2023-03-27T08:46:29.559Z,68.54
2023-03-27T08:49:17.342Z,68.85
2023-03-27T08:52:10.304Z,68.83
2023-03-27T08:54:39.469Z,68.59
2023-03-27T08:57:18.682Z,67.54
2023-03-27T08:59:47.671Z,67.34
2023-03-27T09:02:29.203Z,66.97
2023-03-27T09:05:06.044Z,66.66
2023-03-27T09:07:45.875Z,66.64
2023-03-27T09:10:40.572Z,66.72
2023-03-27T09:13:49.331Z,65.54
2023-03-27T09:16:25.320Z,64.50
2023-03-27T09:19:32.327Z,64.87
2023-03-27T09:22:04.548Z,65.32
2023-03-27T09:24:56.556Z,64.25
2023-03-27T09:27:48.150Z,62.69
2023-03-27T09:30:49.868Z,61.75
2023-03-27T09:33:27.045Z,62.33
2023-03-27T09:35:55.046Z,62.36
2023-03-27T09:38:54.055Z,62.63
2023-03-27T09:41:46.149Z,62.07
2023-03-27T09:44:20.945Z,62.43
2023-03-27T09:46:49.689Z,62.25
2023-03-27T09:49:18.600Z,62.62
2023-03-27T09:51:56.621Z,62.63
2023-03-27T09:54:53.841Z,62.10
2023-03-27T09:57:33.670Z,60.99
2023-03-27T10:00:24.916Z,60.15
2023-03-27T10:03:05.593Z,60.18
2023-03-27T10:05:35.176Z,59.54
2023-03-27T10:08:28.569Z,59.58
2023-03-27T10:11:07.871Z,60.56
2023-03-27T10:13:44.445Z,60.99
2023-03-27T10:16:11.307Z,61.47
2023-03-27T10:18:55.566Z,61.15
2023-03-27T10:21:34.625Z,60.74
2023-03-27T10:24:19.381Z,59.92
2023-03-27T10:27:08.316Z,60.30
2023-03-27T10:29:39.773Z,60.16
2023-03-27T10:32:11.330Z,59.83
2023-03-27T10:35:03.317Z,59.37
2023-03-27T10:38:10.886Z,59.02
2023-03-27T10:40:49.885Z,58.13
2023-03-27T10:43:43.983Z,58.61
2023-03-27T10:46:12.836Z,59.70
2023-03-27T10:48:48.216Z,61.04
2023-03-27T10:51:36.020Z,63.56
2023-03-27T10:54:34.821Z,67.61
2023-03-27T10:57:05.993Z,69.93
2023-03-27T10:59:42.158Z,70.79
2023-03-27T11:02:39.923Z,71.97
2023-03-27T11:05:14.180Z,71.84
2023-03-27T11:08:10.022Z,72.57
2023-03-27T11:10:40.883Z,72.58
2023-03-27T11:13:17.437Z,71.94
2023-03-27T11:15:49.189Z,71.81
2023-03-27T11:19:10.632Z,70.87
2023-03-27T11:22:01.129Z,71.12
2023-03-27T11:24:52.019Z,70.49
2023-03-27T11:27:27.906Z,70.48
2023-03-27T11:30:33.101Z,70.64
2023-03-27T11:33:05.606Z,70.26
2023-03-27T11:35:37.599Z,70.40
2023-03-27T11:38:31.688Z,70.84
2023-03-27T11:41:01.781Z,70.86
2023-03-27T11:43:29.082Z,70.91
2023-03-27T11:46:11.639Z,70.76
2023-03-27T11:48:57.862Z,70.55
2023-03-27T11:51:24.333Z,70.87
2023-03-27T11:54:11.637Z,70.75
2023-03-27T11:56:57.777Z,68.98
2023-03-27T11:59:48.434Z,69.00
2023-03-27T12:02:33.990Z,68.31
2023-03-27T12:05:18.925Z,66.87
2023-03-27T12:08:07.017Z,65.34
2023-03-27T12:10:38.601Z,64.95
2023-03-27T12:13:47.780Z,63.04
2023-03-27T12:16:55.298Z,62.05
2023-03-27T12:19:53.604Z,61.43
2023-03-27T12:22:52.644Z,62.00
2023-03-27T12:26:10.186Z,64.14
2023-03-27T12:28:59.103Z,65.46
2023-03-27T12:32:01.240Z,67.45
2023-03-27T12:34:50.831Z,69.16
2023-03-27T12:37:20.076Z,70.04
2023-03-27T12:39:56.710Z,70.93
2023-03-27T12:42:51.598Z,70.91
2023-03-27T12:45:24.644Z,71.12
2023-03-27T12:48:09.893Z,70.42
2023-03-27T12:50:41.966Z,70.29
2023-03-27T12:53:40.945Z,69.77
2023-03-27T12:56:10.540Z,70.21
2023-03-27T12:58:38.184Z,69.94
2023-03-27T13:01:36.299Z,69.67
2023-03-27T13:04:24.513Z,69.38
2023-03-27T13:06:55.960Z,65.13
2023-03-27T13:09:52.728Z,65.95
2023-03-27T13:12:46.938Z,65.99
2023-03-27T13:15:41.797Z,66.62
2023-03-27T13:18:19.838Z,67.32
2023-03-27T13:21:12.834Z,67.77
2023-03-27T13:24:06.593Z,67.66
2023-03-27T13:26:40.935Z,67.04
2023-03-27T13:29:19.244Z,65.65
2023-03-27T13:31:58.372Z,64.99
2023-03-27T13:35:01.461Z,64.93
2023-03-27T13:37:36.383Z,66.12
2023-03-27T13:40:20.352Z,64.07
2023-03-27T13:42:51.731Z,61.81
2023-03-27T13:45:38.246Z,60.56
2023-03-27T13:48:55.412Z,59.15
2023-03-27T13:51:38.567Z,59.08
2023-03-27T13:54:52.969Z,56.09
2023-03-27T13:57:42.821Z,52.27
2023-03-27T14:00:47.269Z,52.45
2023-03-27T14:03:45.720Z,53.27
2023-03-27T14:06:31.699Z,54.24
2023-03-27T14:09:07.777Z,55.69
2023-03-27T14:12:26.899Z,54.35
2023-03-27T14:15:22.001Z,55.36
2023-03-27T14:18:39.237Z,55.56
2023-03-27T14:21:09.250Z,55.96
2023-03-27T14:24:04.479Z,56.26
2023-03-27T14:26:43.316Z,54.94
2023-03-27T14:29:15.307Z,55.16
2023-03-27T14:31:45.897Z,54.82
2023-03-27T14:34:54.015Z,55.54
2023-03-27T14:37:36.422Z,55.89
2023-03-27T14:40:27.153Z,56.66
2023-03-27T14:42:58.099Z,56.49
2023-03-27T14:45:29.981Z,55.50
2023-03-27T14:48:21.177Z,53.43
2023-03-27T14:50:51.518Z,53.72
2023-03-27T14:53:26.077Z,54.81
2023-03-27T14:56:30.887Z,53.87
2023-03-27T14:59:04.464Z,53.24
2023-03-27T15:01:46.541Z,55.52
2023-03-27T15:04:13.994Z,57.86
2023-03-27T15:06:42.231Z,59.17
2023-03-27T15:09:19.311Z,61.06
2023-03-27T15:12:04.310Z,63.13
2023-03-27T15:14:32.728Z,63.67
2023-03-27T15:17:03.975Z,63.78
2023-03-27T15:19:43.175Z,63.40
2023-03-27T15:22:37.717Z,63.33
2023-03-27T15:25:08.616Z,62.61
2023-03-27T15:27:40.826Z,62.24
2023-03-27T15:30:27.637Z,60.58
2023-03-27T15:32:56.645Z,59.70
2023-03-27T15:35:38.259Z,59.50
2023-03-27T15:38:06.953Z,59.42
2023-03-27T15:40:42.432Z,57.89
2023-03-27T15:43:12.441Z,57.07
2023-03-27T15:45:39.978Z,57.56
2023-03-27T15:48:18.181Z,57.03
2023-03-27T15:51:02.289Z,57.61
2023-03-27T15:53:45.148Z,58.16
2023-03-27T15:56:40.927Z,58.53
2023-03-27T15:59:11.796Z,58.83
2023-03-27T16:01:57.981Z,59.32
2023-03-27T16:04:28.155Z,59.94
2023-03-27T16:07:05.975Z,60.44
2023-03-27T16:09:37.069Z,60.38
2023-03-27T16:12:03.518Z,60.36
2023-03-27T16:14:40.565Z,60.24
2023-03-27T16:17:10.133Z,59.24
2023-03-27T16:19:54.280Z,58.05
2023-03-27T16:22:28.853Z,58.05
2023-03-27T16:24:55.910Z,57.97
2023-03-27T16:27:24.847Z,58.57
2023-03-27T16:29:51.781Z,58.79
2023-03-27T16:32:19.813Z,58.70
2023-03-27T16:34:53.505Z,58.54
2023-03-27T16:37:22.025Z,58.58
2023-03-27T16:39:48.494Z,58.16
2023-03-27T16:42:17.705Z,57.09
2023-03-27T16:44:45.448Z,57.50
2023-03-27T16:47:13.188Z,57.63
2023-03-27T16:49:40.187Z,57.77
2023-03-27T16:52:06.691Z,57.06
2023-03-27T16:54:33.188Z,56.65
2023-03-27T16:57:00.663Z,56.77
2023-03-27T16:59:28.214Z,55.88
2023-03-27T17:01:57.649Z,55.50
2023-03-27T17:04:25.256Z,55.78
2023-03-27T17:06:51.795Z,56.26
2023-03-27T17:09:18.370Z,56.58
2023-03-27T17:11:44.910Z,57.05
2023-03-27T17:14:11.951Z,57.25
2023-03-27T17:16:38.529Z,57.56
2023-03-27T17:19:05.284Z,57.78
2023-03-27T17:21:31.887Z,57.87
2023-03-27T17:23:59.709Z,58.15
2023-03-27T17:26:29.720Z,57.55
2023-03-27T17:28:56.618Z,58.12
2023-03-27T17:31:23.715Z,58.31
2023-03-27T17:33:50.350Z,58.55
2023-03-27T17:36:23.834Z,59.05
2023-03-27T17:38:53.329Z,59.66
2023-03-27T17:41:20.174Z,60.06
2023-03-27T17:43:47.123Z,61.64
2023-03-27T17:46:14.053Z,63.02
2023-03-27T17:48:41.852Z,64.22
2023-03-27T17:51:10.065Z,65.19
2023-03-27T17:53:39.672Z,65.83
2023-03-27T17:56:07.306Z,66.32
2023-03-27T17:58:34.337Z,67.26
2023-03-27T18:01:12.535Z,68.06
2023-03-27T18:03:39.181Z,68.29
2023-03-27T18:06:06.251Z,68.64
2023-03-27T18:08:33.999Z,68.76
2023-03-27T18:11:00.705Z,68.64
2023-03-27T18:13:28.267Z,68.54
2023-03-27T18:15:56.839Z,68.75
2023-03-27T18:18:24.134Z,68.71
2023-03-27T18:20:54.617Z,68.66
2023-03-27T18:23:21.936Z,68.55
2023-03-27T18:25:49.479Z,68.27
2023-03-27T18:28:16.059Z,68.52
2023-03-27T18:30:47.416Z,68.75
2023-03-27T18:33:13.985Z,69.00
2023-03-27T18:35:42.620Z,69.02
2023-03-27T18:38:11.470Z,69.21
2023-03-27T18:40:38.027Z,69.30
2023-03-27T18:43:04.625Z,69.62
2023-03-27T18:45:31.265Z,69.23
2023-03-27T18:47:57.783Z,69.50
2023-03-27T18:50:24.410Z,69.90
2023-03-27T18:52:50.972Z,69.93
2023-03-27T18:55:17.939Z,70.00
2023-03-27T18:57:45.234Z,70.10
2023-03-27T19:00:18.404Z,70.43
2023-03-27T19:02:45.495Z,70.39
2023-03-27T19:05:12.976Z,70.30
2023-03-27T19:07:44.746Z,70.80
2023-03-27T19:10:11.532Z,70.94
2023-03-27T19:12:40.172Z,71.13
2023-03-27T19:15:25.721Z,71.66
2023-03-27T19:18:28.258Z,72.23
2023-03-27T19:21:18.105Z,72.68
2023-03-27T19:23:48.931Z,73.00
2023-03-27T19:26:19.629Z,73.22
2023-03-27T19:28:47.665Z,73.72
2023-03-27T19:31:14.435Z,73.84
2023-03-27T19:33:41.372Z,74.27
2023-03-27T19:36:08.520Z,74.65
2023-03-27T19:38:37.191Z,74.75
2023-03-27T19:41:07.612Z,75.04
2023-03-27T19:43:34.670Z,74.90
2023-03-27T19:46:14.990Z,74.59
2023-03-27T19:48:47.341Z,74.82
2023-03-27T19:51:22.854Z,74.89
2023-03-27T19:53:51.915Z,74.93
2023-03-27T19:56:21.973Z,74.82
2023-03-27T19:58:48.502Z,75.12
2023-03-27T20:01:15.116Z,74.89
2023-03-27T20:03:44.255Z,75.40
2023-03-27T20:06:18.023Z,75.42
2023-03-27T20:08:45.355Z,75.44
2023-03-27T20:11:14.403Z,75.26
2023-03-27T20:13:53.139Z,75.52
2023-03-27T20:16:27.354Z,75.60
2023-03-27T20:19:04.375Z,75.63
2023-03-27T20:21:34.175Z,75.51
2023-03-27T20:24:00.946Z,75.55
2023-03-27T20:26:32.422Z,75.13
2023-03-27T20:29:17.547Z,74.80
2023-03-27T20:31:46.224Z,74.76
2023-03-27T20:34:12.930Z,74.67
2023-03-27T20:36:43.353Z,74.34
2023-03-27T20:39:27.636Z,74.46
2023-03-27T20:41:58.775Z,74.62
2023-03-27T20:44:35.434Z,74.80
2023-03-27T20:47:11.133Z,75.11
2023-03-27T20:49:41.729Z,74.84
2023-03-27T20:52:10.752Z,75.04
2023-03-27T20:54:37.436Z,75.39
2023-03-27T20:57:04.564Z,75.36
2023-03-27T20:59:31.827Z,75.99
2023-03-27T21:01:59.541Z,76.02
2023-03-27T21:04:28.250Z,76.17
2023-03-27T21:06:56.131Z,76.35
2023-03-27T21:09:26.645Z,76.44
2023-03-27T21:11:55.090Z,76.25
2023-03-27T21:14:22.472Z,76.56
2023-03-27T21:16:49.139Z,76.91
2023-03-27T21:19:16.043Z,76.96
2023-03-27T21:21:43.244Z,77.09
2023-03-27T21:24:10.029Z,76.85
2023-03-27T21:26:36.773Z,76.96
2023-03-27T21:29:03.635Z,77.11
2023-03-27T21:31:30.819Z,77.24
2023-03-27T21:33:57.546Z,77.13
2023-03-27T21:36:25.447Z,77.03
2023-03-27T21:38:53.823Z,76.89
2023-03-27T21:41:20.732Z,77.17
2023-03-27T21:43:47.367Z,77.49
2023-03-27T21:46:14.045Z,77.51
2023-03-27T21:48:40.740Z,77.42
2023-03-27T21:51:08.597Z,77.31
2023-03-27T21:53:35.391Z,77.45
2023-03-27T21:56:02.113Z,77.60
2023-03-27T21:58:28.841Z,77.60
2023-03-27T22:00:57.126Z,77.72
2023-03-27T22:03:24.526Z,77.52
2023-03-27T22:06:00.977Z,77.79
2023-03-27T22:08:38.014Z,77.73
2023-03-27T22:11:04.796Z,77.81
2023-03-27T22:13:31.492Z,78.17
2023-03-27T22:15:58.337Z,78.38
2023-03-27T22:18:25.145Z,78.29
2023-03-27T22:20:51.838Z,78.34
2023-03-27T22:23:18.380Z,78.39
2023-03-27T22:25:54.026Z,78.39
2023-03-27T22:28:20.734Z,78.19
2023-03-27T22:30:47.681Z,78.23
2023-03-27T22:33:14.414Z,78.20
2023-03-27T22:35:47.794Z,77.92
2023-03-27T22:38:14.691Z,78.29
2023-03-27T22:40:41.251Z,78.53
2023-03-27T22:43:07.984Z,78.51
2023-03-27T22:45:37.892Z,78.44
2023-03-27T22:48:05.805Z,78.62
2023-03-27T22:50:32.451Z,78.90
2023-03-27T22:52:59.076Z,78.87
2023-03-27T22:55:26.152Z,78.58
2023-03-27T22:57:52.729Z,78.75
2023-03-27T23:00:19.738Z,79.00
2023-03-27T23:02:46.540Z,79.06
2023-03-27T23:05:13.209Z,79.06
2023-03-27T23:07:39.905Z,79.10
2023-03-27T23:10:07.134Z,78.99
2023-03-27T23:12:33.689Z,79.29
2023-03-27T23:15:00.363Z,79.47
2023-03-27T23:17:27.397Z,79.42
2023-03-27T23:19:54.039Z,79.28
2023-03-27T23:22:20.617Z,79.33
2023-03-27T23:24:47.188Z,79.41
2023-03-27T23:27:13.825Z,79.51
2023-03-27T23:29:40.476Z,79.40
2023-03-27T23:32:07.235Z,79.47
2023-03-27T23:34:33.940Z,79.50
2023-03-27T23:37:00.634Z,78.66
2023-03-27T23:39:27.405Z,78.47
2023-03-27T23:41:53.956Z,78.62
2023-03-27T23:44:20.589Z,78.41
2023-03-27T23:46:47.092Z,78.49
2023-03-27T23:49:13.796Z,78.07
2023-03-27T23:51:40.497Z,78.26
2023-03-27T23:54:08.249Z,78.00
2023-03-27T23:56:34.889Z,78.29
2023-03-27T23:59:01.606Z,78.11
